KOMA/OMA METAR and TAF weather

Enter ICAO airport designator
Station Type Date Time Source
KOMA METAR 2020/01/20 18:52 UTC NOAA

KOMA 201852Z 36005KT 10SM FEW008 SCT015 M16/M19 A3070 RMK AO2 SLP422 T11561189 $


Station Type Date Time Source
KOMA Decoded METAR 2020/01/20 18:52 UTC NOAA

OMAHA EPPLEY AIRFIELD, NE, United States (KOMA) 41-18N 095-54W 312M
Jan 20, 2020 - 01:52 PM EST / 2020.01.20 1852 UTC
Wind: from the N (360 degrees) at 6 MPH (5 KT):0
Visibility: 10 mile(s):0
Sky conditions: partly cloudy
Temperature: 3.9 F (-15.6 C)
Windchill: -7 F (-22 C):2
Dew Point: -2.0 F (-18.9 C)
Relative Humidity: 75%
Pressure (altimeter): 30.7 in. Hg (1039 hPa)
ob: KOMA 201852Z 36005KT 10SM FEW008 SCT015 M16/M19 A3070 RMK AO2 SLP422 T11561189
cycle: 19

Station Type Date Time Source
KOMA TAF 2020/01/20 18:22 UTC NOAA

TAF KOMA 201720Z 2018/2118 VRB04KT P6SM SKC
FM211400 17012KT P6SM FEW250

Example: see airport list